createdAt,value
2023-02-25T00:01:28.509Z,10.00
2023-02-25T00:03:56.912Z,14.88
2023-02-25T00:06:26.420Z,18.27
2023-02-25T00:08:54.367Z,23.38
2023-02-25T00:11:22.085Z,16.95
2023-02-25T00:13:49.518Z,26.38
2023-02-25T00:16:17.031Z,19.63
2023-02-25T00:18:46.565Z,19.13
2023-02-25T00:21:15.766Z,21.17
2023-02-25T00:23:44.585Z,23.42
2023-02-25T00:26:12.282Z,16.63
2023-02-25T00:28:40.443Z,20.35
2023-02-25T00:31:12.794Z,16.90
2023-02-25T00:33:42.173Z,11.10
2023-02-25T00:36:21.549Z,15.90
2023-02-25T00:38:50.321Z,21.93
2023-02-25T00:41:19.964Z,15.20
2023-02-25T00:43:52.955Z,12.48
2023-02-25T00:46:21.593Z,20.35
2023-02-25T00:48:49.348Z,12.02
2023-02-25T00:51:22.475Z,21.38
2023-02-25T00:53:50.976Z,22.10
2023-02-25T00:56:20.560Z,14.00
2023-02-25T00:58:49.557Z,11.63
2023-02-25T01:01:16.862Z,22.42
2023-02-25T01:03:44.205Z,13.65
2023-02-25T01:06:11.756Z,14.80
2023-02-25T01:08:39.169Z,16.60
2023-02-25T01:11:21.317Z,15.45
2023-02-25T01:13:49.798Z,14.73
2023-02-25T01:16:20.214Z,14.65
2023-02-25T01:18:48.092Z,13.68
2023-02-25T01:21:22.420Z,16.70
2023-02-25T01:23:58.755Z,12.95
2023-02-25T01:26:27.721Z,10.52
2023-02-25T01:28:55.897Z,26.45
2023-02-25T01:31:25.137Z,13.65
2023-02-25T01:33:52.198Z,15.40
2023-02-25T01:36:19.803Z,14.55
2023-02-25T01:38:47.139Z,11.05
2023-02-25T01:41:14.051Z,13.98
2023-02-25T01:43:41.813Z,17.10
2023-02-25T01:46:09.309Z,18.65
2023-02-25T01:48:40.184Z,11.88
2023-02-25T01:51:13.059Z,8.00
2023-02-25T01:53:45.885Z,15.45
2023-02-25T01:56:17.931Z,12.50
2023-02-25T01:58:45.268Z,18.67
2023-02-25T02:01:17.039Z,23.40
2023-02-25T02:03:45.776Z,14.43
2023-02-25T02:06:30.160Z,15.95
2023-02-25T02:08:58.434Z,20.58
2023-02-25T02:11:25.741Z,18.00
2023-02-25T02:13:56.339Z,15.80
2023-02-25T02:16:32.231Z,16.38
2023-02-25T02:19:08.116Z,17.55
2023-02-25T02:22:15.670Z,12.70
2023-02-25T02:25:18.826Z,17.33
2023-02-25T02:27:58.494Z,16.98
2023-02-25T02:30:54.447Z,19.65
2023-02-25T02:33:36.609Z,15.18
2023-02-25T02:36:19.112Z,26.20
2023-02-25T02:39:00.506Z,23.67
2023-02-25T02:41:35.118Z,11.60
2023-02-25T02:44:19.868Z,17.73
2023-02-25T02:47:08.860Z,14.43
2023-02-25T02:49:55.394Z,13.43
2023-02-25T02:52:30.607Z,15.13
2023-02-25T02:55:22.609Z,19.73
2023-02-25T02:57:55.858Z,15.35
2023-02-25T03:00:28.312Z,14.05
2023-02-25T03:03:07.259Z,13.45
2023-02-25T03:05:40.959Z,22.48
2023-02-25T03:08:14.519Z,8.02
2023-02-25T03:10:42.868Z,13.98
2023-02-25T03:13:10.682Z,19.92
2023-02-25T03:15:40.602Z,13.15
2023-02-25T03:18:21.504Z,20.27
2023-02-25T03:20:51.025Z,17.13
2023-02-25T03:23:23.891Z,21.05
2023-02-25T03:26:00.268Z,6.35
2023-02-25T03:28:31.853Z,19.58
2023-02-25T03:31:21.702Z,16.23
2023-02-25T03:33:49.232Z,15.35
2023-02-25T03:36:31.405Z,12.55
2023-02-25T03:39:09.760Z,23.38
2023-02-25T03:41:44.738Z,11.40
2023-02-25T03:44:18.527Z,10.48
2023-02-25T03:46:47.929Z,13.32
2023-02-25T03:49:30.610Z,15.23
2023-02-25T03:52:00.283Z,17.05
2023-02-25T03:54:27.570Z,11.07
2023-02-25T03:56:54.554Z,11.32
2023-02-25T03:59:28.069Z,21.88
2023-02-25T04:01:56.992Z,20.60
2023-02-25T04:04:24.079Z,10.93
2023-02-25T04:06:51.500Z,12.48
2023-02-25T04:09:19.304Z,12.77
2023-02-25T04:11:48.961Z,13.82
2023-02-25T04:14:18.373Z,11.02
2023-02-25T04:16:46.428Z,23.05
2023-02-25T04:19:13.838Z,10.88
2023-02-25T04:21:42.747Z,13.52
2023-02-25T04:24:11.069Z,7.07
2023-02-25T04:26:38.393Z,18.65
2023-02-25T04:29:05.773Z,11.18
2023-02-25T04:31:33.170Z,16.80
2023-02-25T04:34:00.638Z,7.65
2023-02-25T04:36:27.920Z,14.73
2023-02-25T04:38:55.859Z,8.27
2023-02-25T04:41:24.095Z,8.45
2023-02-25T04:43:51.580Z,8.30
2023-02-25T04:46:19.127Z,7.35
2023-02-25T04:48:46.131Z,4.00
2023-02-25T04:51:13.774Z,4.70
2023-02-25T04:53:41.065Z,5.97
2023-02-25T04:56:09.986Z,6.38
2023-02-25T04:58:37.890Z,8.63
2023-02-25T05:01:07.372Z,13.10
2023-02-25T05:03:34.853Z,10.93
2023-02-25T05:06:02.038Z,13.35
2023-02-25T05:08:29.327Z,20.85
2023-02-25T05:10:56.602Z,14.20
2023-02-25T05:13:23.930Z,9.65
2023-02-25T05:15:51.423Z,11.98
2023-02-25T05:18:18.306Z,10.88
2023-02-25T05:20:47.427Z,7.45
2023-02-25T05:23:14.536Z,11.15
2023-02-25T05:25:41.982Z,14.77
2023-02-25T05:28:10.868Z,7.97
2023-02-25T05:30:39.194Z,9.65
2023-02-25T05:33:09.257Z,14.00
2023-02-25T05:35:40.038Z,13.35
2023-02-25T05:38:07.337Z,12.90
2023-02-25T05:40:36.279Z,5.57
2023-02-25T05:43:03.555Z,6.53
2023-02-25T05:45:30.422Z,9.52
2023-02-25T05:47:57.732Z,10.02
2023-02-25T05:50:24.786Z,14.05
2023-02-25T05:52:52.054Z,7.32
2023-02-25T05:55:18.989Z,12.35
2023-02-25T05:57:45.902Z,10.00
2023-02-25T06:00:15.141Z,9.40
2023-02-25T06:02:44.282Z,12.52
2023-02-25T06:05:11.390Z,13.32
2023-02-25T06:07:38.646Z,20.17
2023-02-25T06:10:06.216Z,16.02
2023-02-25T06:12:34.874Z,5.18
2023-02-25T06:15:01.901Z,5.05
2023-02-25T06:17:28.775Z,12.40
2023-02-25T06:19:56.381Z,9.35
2023-02-25T06:22:24.066Z,11.50
2023-02-25T06:24:50.940Z,7.70
2023-02-25T06:27:18.839Z,7.53
2023-02-25T06:29:48.370Z,14.57
2023-02-25T06:32:16.773Z,14.00
2023-02-25T06:34:43.865Z,9.65
2023-02-25T06:37:11.339Z,10.07
2023-02-25T06:39:38.302Z,25.33
2023-02-25T06:42:05.222Z,18.90
2023-02-25T06:44:32.488Z,10.10
2023-02-25T06:46:59.798Z,7.07
2023-02-25T06:49:27.144Z,11.15
2023-02-25T06:51:54.029Z,5.07
2023-02-25T06:54:20.988Z,9.70
2023-02-25T06:56:53.282Z,1.52
2023-02-25T06:59:20.872Z,4.53
2023-02-25T07:01:48.009Z,4.38
2023-02-25T07:04:16.820Z,4.38
2023-02-25T07:06:44.202Z,3.13
2023-02-25T07:09:11.660Z,1.00
2023-02-25T07:11:39.018Z,3.60
2023-02-25T07:14:06.784Z,2.45
2023-02-25T07:16:34.704Z,3.28
2023-02-25T07:19:02.403Z,1.10
2023-02-25T07:21:31.031Z,1.70
2023-02-25T07:23:59.268Z,3.67
2023-02-25T07:26:29.507Z,3.65
2023-02-25T07:31:25.197Z,2.47
2023-02-25T07:33:54.362Z,2.50
2023-02-25T07:36:21.956Z,4.40
2023-02-25T07:38:49.289Z,3.10
2023-02-25T07:41:18.394Z,0.95
2023-02-25T07:43:45.724Z,1.23
2023-02-25T07:46:13.559Z,3.58
2023-02-25T07:48:41.988Z,4.65
2023-02-25T07:51:16.077Z,5.85
2023-02-25T07:53:43.673Z,3.65
2023-02-25T07:56:11.103Z,5.20
2023-02-25T07:58:38.499Z,1.25
2023-02-25T08:01:16.430Z,7.97
2023-02-25T08:03:43.692Z,5.88
2023-02-25T08:06:11.057Z,5.35
2023-02-25T08:08:38.366Z,5.85
2023-02-25T08:11:10.760Z,8.73
2023-02-25T08:13:38.290Z,7.88
2023-02-25T08:16:11.251Z,13.68
2023-02-25T08:18:38.942Z,4.78
2023-02-25T08:21:06.028Z,3.78
2023-02-25T08:23:33.419Z,2.95
2023-02-25T08:26:01.235Z,8.65
2023-02-25T08:28:34.328Z,6.03
2023-02-25T08:31:03.620Z,2.60
2023-02-25T08:33:31.150Z,10.60
2023-02-25T08:36:09.619Z,7.18
2023-02-25T08:38:38.311Z,7.15
2023-02-25T08:41:07.025Z,4.63
2023-02-25T08:43:34.425Z,4.82
2023-02-25T08:46:01.850Z,5.82
2023-02-25T08:48:30.298Z,5.82
2023-02-25T08:51:02.177Z,12.88
2023-02-25T08:53:29.492Z,2.15
2023-02-25T08:55:56.779Z,11.68
2023-02-25T08:58:24.057Z,6.60
2023-02-25T09:00:52.042Z,7.40
2023-02-25T09:03:19.496Z,5.00
2023-02-25T09:05:52.450Z,1.58
2023-02-25T09:08:20.033Z,5.15
2023-02-25T09:10:50.711Z,4.78
2023-02-25T09:13:18.278Z,5.43
2023-02-25T09:15:45.579Z,3.17
2023-02-25T09:18:12.889Z,2.58
2023-02-25T09:20:40.294Z,3.95
2023-02-25T09:23:07.338Z,3.15
2023-02-25T09:25:38.209Z,3.33
2023-02-25T09:28:05.485Z,3.53
2023-02-25T09:30:32.831Z,3.45
2023-02-25T09:33:00.506Z,5.07
2023-02-25T09:35:28.037Z,5.65
2023-02-25T09:37:55.262Z,2.25
2023-02-25T09:40:23.068Z,2.53
2023-02-25T09:43:08.206Z,3.25
2023-02-25T09:45:36.452Z,3.83
2023-02-25T09:48:28.528Z,7.65
2023-02-25T09:51:06.536Z,2.60
2023-02-25T09:53:44.294Z,3.90
2023-02-25T09:56:14.903Z,2.35
2023-02-25T10:01:25.031Z,3.33
2023-02-25T10:04:13.283Z,3.03
2023-02-25T10:06:47.968Z,2.08
2023-02-25T10:09:34.688Z,3.67
2023-02-25T10:12:34.101Z,5.57
2023-02-25T10:15:27.581Z,7.22
2023-02-25T10:18:19.254Z,5.32
2023-02-25T10:21:12.038Z,6.22
2023-02-25T10:24:14.046Z,7.13
2023-02-25T10:26:47.303Z,5.05
2023-02-25T10:29:23.453Z,8.50
2023-02-25T10:31:51.073Z,6.25
2023-02-25T10:34:27.990Z,5.53
2023-02-25T10:37:00.248Z,11.32
2023-02-25T10:39:28.756Z,2.20
2023-02-25T10:41:56.591Z,5.15
2023-02-25T10:44:24.035Z,3.10
2023-02-25T10:46:56.157Z,7.55
2023-02-25T10:49:28.870Z,3.05
2023-02-25T10:52:14.127Z,5.43
2023-02-25T10:54:53.141Z,1.73
2023-02-25T10:57:41.133Z,5.82
2023-02-25T11:00:32.068Z,4.97
2023-02-25T11:03:03.876Z,4.70
2023-02-25T11:05:43.668Z,6.20
2023-02-25T11:08:31.684Z,3.58
2023-02-25T11:11:15.422Z,4.18
2023-02-25T11:13:42.942Z,3.47
2023-02-25T11:16:13.703Z,2.53
2023-02-25T11:18:41.887Z,7.82
2023-02-25T11:21:13.173Z,3.05
2023-02-25T11:23:46.840Z,3.70
2023-02-25T11:26:27.972Z,2.10
2023-02-25T11:28:55.693Z,2.55
2023-02-25T11:31:25.869Z,3.45
2023-02-25T11:33:59.171Z,3.70
2023-02-25T11:36:32.134Z,1.13
2023-02-25T11:39:16.721Z,1.02
2023-02-25T11:41:55.949Z,4.47
2023-02-25T11:44:27.079Z,3.60
2023-02-25T11:46:57.150Z,0.85
2023-02-25T11:49:42.628Z,4.75
2023-02-25T11:52:20.302Z,7.50
2023-02-25T11:54:57.645Z,4.03
2023-02-25T11:57:41.797Z,2.70
2023-02-25T12:00:59.722Z,3.92
2023-02-25T12:03:49.632Z,6.35
2023-02-25T12:06:54.730Z,1.90
2023-02-25T12:09:22.002Z,2.08
2023-02-25T12:11:51.923Z,1.25
2023-02-25T12:15:06.192Z,1.90
2023-02-25T12:18:10.887Z,1.23
2023-02-25T12:20:46.825Z,6.22
2023-02-25T12:23:14.114Z,1.05
2023-02-25T12:26:06.657Z,1.45
2023-02-25T12:28:45.528Z,1.45
2023-02-25T12:31:50.322Z,1.75
2023-02-25T12:34:49.553Z,2.22
2023-02-25T12:37:31.729Z,2.35
2023-02-25T12:40:04.601Z,1.65
2023-02-25T12:42:48.848Z,4.30
2023-02-25T12:45:31.366Z,4.55
2023-02-25T12:48:22.781Z,2.25
2023-02-25T12:51:23.877Z,2.90
2023-02-25T12:54:12.391Z,2.63
2023-02-25T12:56:53.462Z,5.85
2023-02-25T12:59:44.983Z,2.05
2023-02-25T13:02:42.947Z,2.00
2023-02-25T13:05:26.618Z,5.97
2023-02-25T13:08:30.058Z,5.03
2023-02-25T13:11:11.540Z,0.85
2023-02-25T13:13:56.811Z,4.68
2023-02-25T13:17:06.927Z,2.60
2023-02-25T13:20:03.081Z,3.30
2023-02-25T13:23:07.623Z,8.30
2023-02-25T13:26:02.060Z,3.42
2023-02-25T13:28:49.276Z,2.50
2023-02-25T13:31:23.245Z,4.50
2023-02-25T13:34:09.228Z,3.35
2023-02-25T13:36:48.009Z,2.97
2023-02-25T13:39:23.791Z,3.05
2023-02-25T13:42:04.384Z,2.78
2023-02-25T13:44:36.740Z,1.80
2023-02-25T13:47:32.172Z,4.65
2023-02-25T13:50:36.946Z,2.05
2023-02-25T13:53:23.564Z,1.77
2023-02-25T13:56:21.339Z,5.07
2023-02-25T13:59:15.556Z,4.82
2023-02-25T14:02:13.740Z,3.75
2023-02-25T14:05:18.376Z,1.88
2023-02-25T14:08:05.019Z,6.25
2023-02-25T14:10:50.688Z,1.13
2023-02-25T14:14:06.540Z,2.80
2023-02-25T14:16:36.464Z,4.57
2023-02-25T14:19:51.422Z,1.27
2023-02-25T14:22:51.022Z,0.70
2023-02-25T14:25:21.020Z,1.50
2023-02-25T14:28:13.460Z,3.35
2023-02-25T14:31:01.309Z,3.58
2023-02-25T14:34:05.825Z,1.60
2023-02-25T14:36:51.715Z,3.33
2023-02-25T14:39:27.735Z,5.20
2023-02-25T14:42:33.048Z,0.95
2023-02-25T14:45:09.188Z,2.33
2023-02-25T14:47:49.578Z,4.70
2023-02-25T14:53:24.638Z,3.17
2023-02-25T14:56:06.154Z,0.85
2023-02-25T14:58:33.486Z,2.00
2023-02-25T15:01:42.753Z,2.35
2023-02-25T15:04:54.741Z,4.93
2023-02-25T15:07:59.068Z,5.30
2023-02-25T15:10:26.168Z,1.75
2023-02-25T15:12:56.276Z,1.45
2023-02-25T15:15:55.690Z,3.10
2023-02-25T15:18:43.024Z,1.42
2023-02-25T15:21:31.804Z,4.00
2023-02-25T15:23:59.119Z,3.45
2023-02-25T15:26:40.193Z,2.78
2023-02-25T15:29:28.446Z,3.20
2023-02-25T15:32:23.396Z,8.07
2023-02-25T15:34:56.290Z,4.03
2023-02-25T15:37:32.785Z,3.42
2023-02-25T15:40:16.155Z,3.70
2023-02-25T15:42:51.394Z,3.03
2023-02-25T15:45:27.778Z,2.30
2023-02-25T15:48:07.103Z,4.82
2023-02-25T15:50:52.169Z,4.38
2023-02-25T15:53:23.401Z,6.68
2023-02-25T15:56:05.732Z,1.75
2023-02-25T15:58:32.821Z,1.40
2023-02-25T16:01:00.186Z,5.10
2023-02-25T16:03:36.267Z,1.77
2023-02-25T16:06:07.103Z,6.30
2023-02-25T16:08:59.304Z,4.50
2023-02-25T16:11:39.857Z,3.03
2023-02-25T16:14:31.803Z,2.72
2023-02-25T16:16:59.106Z,3.80
2023-02-25T16:19:30.907Z,4.25
2023-02-25T16:22:05.021Z,3.72
2023-02-25T16:24:32.552Z,4.03
2023-02-25T16:27:12.685Z,4.63
2023-02-25T16:30:00.325Z,6.90
2023-02-25T16:32:49.392Z,4.32
2023-02-25T16:35:32.512Z,2.00
2023-02-25T16:38:33.152Z,8.02
2023-02-25T16:41:01.123Z,6.07
2023-02-25T16:43:33.221Z,10.95
2023-02-25T16:46:10.453Z,2.80
2023-02-25T16:48:46.364Z,13.80
2023-02-25T16:51:31.639Z,3.83
2023-02-25T16:54:20.428Z,1.48
2023-02-25T16:56:50.998Z,4.93
2023-02-25T16:59:21.707Z,3.05
2023-02-25T17:02:00.255Z,4.28
2023-02-25T17:04:31.547Z,2.72
2023-02-25T17:07:35.765Z,3.28
2023-02-25T17:10:04.984Z,2.60
2023-02-25T17:12:45.762Z,4.43
2023-02-25T17:15:29.975Z,5.50
2023-02-25T17:18:11.370Z,4.93
2023-02-25T17:20:38.690Z,3.03
2023-02-25T17:23:11.359Z,4.82
2023-02-25T17:25:48.571Z,7.07
2023-02-25T17:28:24.179Z,2.58
2023-02-25T17:30:52.238Z,6.70
2023-02-25T17:33:31.983Z,2.67
2023-02-25T17:36:11.282Z,6.95
2023-02-25T17:38:39.307Z,4.45
2023-02-25T17:41:06.833Z,6.30
2023-02-25T17:43:38.721Z,4.57
2023-02-25T17:46:27.385Z,5.60
2023-02-25T17:49:02.927Z,6.53
2023-02-25T17:51:35.925Z,4.03
2023-02-25T17:54:20.280Z,12.82
2023-02-25T17:56:57.080Z,7.00
2023-02-25T17:59:38.833Z,3.17
2023-02-25T18:02:24.631Z,5.22
2023-02-25T18:05:14.214Z,4.57
2023-02-25T18:08:15.374Z,6.22
2023-02-25T18:10:45.845Z,6.07
2023-02-25T18:13:28.402Z,8.50
2023-02-25T18:16:33.330Z,6.57
2023-02-25T18:19:01.568Z,9.23
2023-02-25T18:21:29.458Z,8.40
2023-02-25T18:23:57.235Z,3.58
2023-02-25T18:26:26.139Z,9.73
2023-02-25T18:29:00.441Z,9.05
2023-02-25T18:31:27.919Z,12.63
2023-02-25T18:33:55.388Z,7.13
2023-02-25T18:36:26.482Z,4.60
2023-02-25T18:38:57.226Z,11.18
2023-02-25T18:41:24.240Z,5.00
2023-02-25T18:43:54.753Z,4.07
2023-02-25T18:46:22.622Z,9.70
2023-02-25T18:48:50.230Z,9.88
2023-02-25T18:51:18.250Z,7.30
2023-02-25T18:53:46.742Z,5.22
2023-02-25T18:56:17.163Z,5.07
2023-02-25T18:58:45.491Z,2.97
2023-02-25T19:01:23.641Z,6.53
2023-02-25T19:03:51.347Z,5.82
2023-02-25T19:06:18.654Z,5.50
2023-02-25T19:08:46.137Z,7.38
2023-02-25T19:11:21.135Z,5.15
2023-02-25T19:13:48.655Z,7.47
2023-02-25T19:16:17.134Z,4.90
2023-02-25T19:18:44.830Z,10.60
2023-02-25T19:21:17.864Z,5.90
2023-02-25T19:23:45.747Z,3.60
2023-02-25T19:26:13.316Z,4.43
2023-02-25T19:28:40.548Z,9.30
2023-02-25T19:31:08.950Z,9.90
2023-02-25T19:33:36.051Z,8.02
2023-02-25T19:36:04.709Z,14.43
2023-02-25T19:38:32.127Z,6.93
2023-02-25T19:41:04.108Z,8.80
2023-02-25T19:43:32.536Z,4.20
2023-02-25T19:46:00.037Z,5.63
2023-02-25T19:48:28.028Z,5.07
2023-02-25T19:50:55.969Z,7.78
2023-02-25T19:53:23.551Z,7.78
2023-02-25T19:55:55.022Z,7.70
2023-02-25T19:58:22.812Z,4.55
2023-02-25T20:00:50.635Z,7.95
2023-02-25T20:03:18.018Z,9.35
2023-02-25T20:05:45.336Z,10.70
2023-02-25T20:08:13.595Z,14.32
2023-02-25T20:10:43.844Z,21.77
2023-02-25T20:15:39.551Z,17.15
2023-02-25T20:18:07.090Z,13.07
2023-02-25T20:20:34.501Z,8.35
2023-02-25T20:23:01.796Z,7.53
2023-02-25T20:25:29.167Z,7.25
2023-02-25T20:27:56.714Z,10.45
2023-02-25T20:30:23.977Z,7.68
2023-02-25T20:32:51.362Z,12.70
2023-02-25T20:35:21.388Z,8.20
2023-02-25T20:38:00.327Z,9.25
2023-02-25T20:40:27.946Z,6.80
2023-02-25T20:42:55.091Z,6.80
2023-02-25T20:45:22.275Z,6.88
2023-02-25T20:47:49.562Z,7.72
2023-02-25T20:50:20.434Z,8.45
2023-02-25T20:52:48.192Z,8.10
2023-02-25T20:55:15.657Z,4.85
2023-02-25T20:57:42.964Z,8.30
2023-02-25T21:00:16.217Z,10.90
2023-02-25T21:02:43.825Z,15.07
2023-02-25T21:05:11.319Z,26.38
2023-02-25T21:07:39.168Z,46.03
2023-02-25T21:10:06.915Z,61.78
2023-02-25T21:12:34.674Z,50.75
2023-02-25T21:15:01.657Z,88.28
2023-02-25T21:17:28.927Z,90.40
2023-02-25T21:19:56.065Z,88.15
2023-02-25T21:22:23.330Z,47.67
2023-02-25T21:24:50.805Z,27.25
2023-02-25T21:27:18.479Z,37.00
2023-02-25T21:29:45.504Z,50.00
2023-02-25T21:32:12.839Z,30.27
2023-02-25T21:34:40.176Z,26.88
2023-02-25T21:37:07.514Z,13.45
2023-02-25T21:39:34.916Z,13.43
2023-02-25T21:42:02.243Z,10.82
2023-02-25T21:44:29.606Z,15.45
2023-02-25T21:46:58.209Z,10.50
2023-02-25T21:49:27.220Z,9.90
2023-02-25T21:51:54.699Z,7.43
2023-02-25T21:54:22.162Z,8.50
2023-02-25T21:56:49.599Z,8.23
2023-02-25T21:59:17.134Z,7.32
2023-02-25T22:01:44.569Z,9.90
2023-02-25T22:04:12.033Z,7.55
2023-02-25T22:06:39.373Z,7.28
2023-02-25T22:09:07.056Z,17.73
2023-02-25T22:11:36.120Z,11.60
2023-02-25T22:14:06.665Z,14.82
2023-02-25T22:16:34.411Z,14.32
2023-02-25T22:19:01.815Z,15.88
2023-02-25T22:21:31.585Z,12.43
2023-02-25T22:24:01.246Z,12.85
2023-02-25T22:26:31.669Z,16.23
2023-02-25T22:29:01.467Z,9.55
2023-02-25T22:31:29.011Z,14.43
2023-02-25T22:33:56.806Z,10.90
2023-02-25T22:36:24.385Z,11.18
2023-02-25T22:38:51.966Z,12.27
2023-02-25T22:41:21.941Z,15.85
2023-02-25T22:43:49.642Z,12.73
2023-02-25T22:46:17.034Z,10.80
2023-02-25T22:48:46.376Z,14.88
2023-02-25T22:51:14.037Z,14.67
2023-02-25T22:53:41.732Z,9.48
2023-02-25T22:56:10.483Z,15.85
2023-02-25T22:58:40.622Z,9.25
2023-02-25T23:03:35.977Z,11.05
2023-02-25T23:06:03.357Z,8.35
2023-02-25T23:08:30.839Z,10.00
2023-02-25T23:11:11.201Z,8.93
2023-02-25T23:13:45.935Z,5.35
2023-02-25T23:16:14.081Z,5.88
2023-02-25T23:18:42.191Z,5.40
2023-02-25T23:21:12.708Z,2.40
2023-02-25T23:23:41.092Z,5.68
2023-02-25T23:26:10.823Z,6.28
2023-02-25T23:28:38.319Z,6.35
2023-02-25T23:31:05.956Z,6.15
2023-02-25T23:33:33.588Z,8.38
2023-02-25T23:36:04.688Z,7.18
2023-02-25T23:38:32.017Z,5.05
2023-02-25T23:41:02.236Z,7.63
2023-02-25T23:45:57.112Z,14.45
2023-02-25T23:48:24.572Z,7.80
2023-02-25T23:50:51.916Z,4.88
2023-02-25T23:53:19.363Z,6.60
2023-02-25T23:55:46.667Z,7.43
2023-02-25T23:58:14.182Z,6.22
